Historyczne dane pomiarowe

Dodano dane terminowe – wersja testowa.

Dane z okresu 1951-2019

Wersja bazy: 1.34 [2019-03-16, lista zmian], aktualizacja planowana na 2019-04-15

Dane meteo z obszaru Polski uzyskane na podstawie danych udostępnionych przez Instytut Meteorologii i Gospodarki Wodnej – Państwowy Instytut Badawczy.

 

Wybierz Datę:    

       

TemperaturaWilgotnośćZachmurzenieWiatrCiśnienieWidzialnośćZjawiska
 Data    tng td wb rh cc ccl cl cm ch dir g1 g2 mslp ppp      
1994-08-13 00:00:00 16.5--- 15.4 15.893wxwx2wx--1007.2 994.4 0.0---wxw1
1994-08-13 01:00:00 16.1--- 14.8 15.392wxwx2wx--1007.0 994.2----wx
1994-08-13 02:00:00 16.2--- 15.4 15.795wxwxwx2wx--1006.9 994.1----wx
1994-08-13 03:00:00 16.2--- 15.7 15.997wxwxwxwx2wx--1006.9 994.1----wx
1994-08-13 04:00:00 15.9--- 15.6 15.798wxwxwx3wx--1007.3 994.4----wx
1994-08-13 05:00:00 16.5--- 16.0 16.297wxwxwx4wx--1007.3 994.5----wx
1994-08-13 06:00:00 17.0--- 16.0 16.494wxwxwx4wx--1007.1 994.3 0.0---wx
1994-08-13 07:00:00 17.1--- 16.0 16.493wxwxwx5wx--1007.2 994.4----wx
1994-08-13 08:00:00 17.6--- 15.9 16.589wxwxwx4wx--1007.2 994.4----wx
1994-08-13 09:00:00 18.4--- 15.2 16.482wxwxwx4wx--1006.9 994.2----wx
1994-08-13 10:00:00 20.2--- 14.0 16.468wxwxwxwx7wx--1006.7 994.0----wx
1994-08-13 11:00:00 22.5--- 12.8 16.654wxwxwx7wx--1006.4 993.8----wx
1994-08-13 12:00:00 21.7--- 12.0 15.954wxwxwx7wx13-1006.0 993.4 0.0---wx
1994-08-13 13:00:00 22.3--- 11.4 15.850wxwxwx6wx--1005.5 992.9----wx
1994-08-13 14:00:00 19.5--- 12.5 15.364wxwxwx8wx14-1005.9 993.2----wx
1994-08-13 15:00:00 19.9--- 12.4 15.462wxwxwxwx7wx12-1005.9 993.2----wx
1994-08-13 16:00:00 18.1--- 12.0 14.568wxwxwx7wx12-1005.9 993.2----wx
1994-08-13 17:00:00 16.2--- 13.2 14.482wxwxwx6wx--1006.1 993.3----wx
1994-08-13 18:00:00 14.8--- 14.3 14.597wxwxwx4wx--1006.0 993.1 0.0---wxw1
1994-08-13 19:00:00 14.8--- 14.6 14.799wxwxwxwx3wx--1006.2 993.3----wxw1
1994-08-13 20:00:00 14.4--- 14.2 14.399wxwxwxwx8wx17-1007.4 994.5----wxw1
1994-08-13 21:00:00 13.4--- 12.9 13.197wxwxwxwx8wx20-1008.3 995.3----wxw1
1994-08-13 22:00:00 13.8--- 12.8 13.294wxwxwxwx4wx12-1008.6 995.6----wxw1
1994-08-13 23:00:00 14.1--- 12.9 13.493wxwxwxwx5wx--1008.8 995.8----wxw1

 

Źródłem pochodzenia danych jest Instytut Meteorologii i Gospodarki Wodnej – Państwowy Instytut Badawczy. Dane Instytutu Meteorologii i Gospodarki Wodnej – Państwowego Instytutu Badawczego zostały przetworzone.

Dane źródłowe można odnaleźć na stronie https://dane.imgw.pl